createdAt,value
2018-04-15T00:01:47.613Z,0.60
2018-04-15T00:04:15.892Z,0.60
2018-04-15T00:06:44.034Z,0.50
2018-04-15T00:09:12.218Z,0.50
2018-04-15T00:11:40.418Z,0.50
2018-04-15T00:14:08.673Z,0.77
2018-04-15T00:16:36.952Z,0.67
2018-04-15T00:19:05.233Z,0.60
2018-04-15T00:21:33.512Z,1.90
2018-04-15T00:24:01.794Z,0.60
2018-04-15T00:26:30.053Z,0.50
2018-04-15T00:28:58.334Z,0.60
2018-04-15T00:31:26.614Z,0.67
2018-04-15T00:33:54.874Z,0.70
2018-04-15T00:36:23.156Z,0.60
2018-04-15T00:38:51.359Z,0.60
2018-04-15T00:41:19.472Z,0.70
2018-04-15T00:43:47.773Z,0.67
2018-04-15T00:46:15.921Z,0.60
2018-04-15T00:48:44.101Z,0.60
2018-04-15T00:51:12.412Z,0.60
2018-04-15T00:53:52.393Z,0.67
2018-04-15T00:56:20.529Z,0.70
2018-04-15T00:58:48.813Z,0.50
2018-04-15T01:01:17.082Z,0.70
2018-04-15T01:03:45.354Z,1.07
2018-04-15T01:06:13.634Z,0.80
2018-04-15T01:08:41.920Z,0.60
2018-04-15T01:11:10.001Z,2.17
2018-04-15T01:13:38.354Z,1.50
2018-04-15T01:16:06.520Z,0.70
2018-04-15T01:18:34.817Z,1.50
2018-04-15T01:21:03.094Z,0.50
2018-04-15T01:23:31.354Z,1.07
2018-04-15T01:25:59.643Z,0.70
2018-04-15T01:28:27.895Z,1.00
2018-04-15T01:30:56.048Z,0.60
2018-04-15T01:33:24.225Z,0.60
2018-04-15T01:35:52.432Z,0.67
2018-04-15T01:38:20.703Z,0.40
2018-04-15T01:40:48.872Z,0.40
2018-04-15T01:43:17.154Z,0.70
2018-04-15T01:45:45.428Z,0.50
2018-04-15T01:48:13.715Z,0.70
2018-04-15T01:50:41.993Z,0.90
2018-04-15T01:53:10.184Z,0.50
2018-04-15T01:55:38.441Z,0.60
2018-04-15T01:58:06.730Z,0.90
2018-04-15T02:00:34.857Z,0.60
2018-04-15T02:03:03.155Z,0.70
2018-04-15T02:05:31.433Z,0.60
2018-04-15T02:07:59.713Z,1.00
2018-04-15T02:10:27.974Z,0.67
2018-04-15T02:12:56.274Z,0.60
2018-04-15T02:15:24.550Z,0.70
2018-04-15T02:17:52.702Z,0.83
2018-04-15T02:20:20.996Z,0.60
2018-04-15T02:22:49.275Z,0.73
2018-04-15T02:25:17.434Z,0.70
2018-04-15T02:27:45.711Z,0.80
2018-04-15T02:30:13.994Z,1.20
2018-04-15T02:32:42.259Z,1.20
2018-04-15T02:35:10.534Z,0.90
2018-04-15T02:37:38.814Z,0.50
2018-04-15T02:40:07.095Z,0.80
2018-04-15T02:42:35.255Z,0.80
2018-04-15T02:45:03.654Z,0.70
2018-04-15T02:47:31.859Z,0.70
2018-04-15T02:50:00.095Z,0.83
2018-04-15T02:52:28.374Z,0.80
2018-04-15T02:54:56.652Z,0.80
2018-04-15T02:57:24.915Z,1.17
2018-04-15T02:59:53.194Z,0.80
2018-04-15T03:02:21.475Z,0.87
2018-04-15T03:04:49.755Z,0.90
2018-04-15T03:07:18.016Z,1.07
2018-04-15T03:09:46.315Z,0.80
2018-04-15T03:12:14.575Z,0.73
2018-04-15T03:14:42.854Z,1.23
2018-04-15T03:17:11.129Z,0.70
2018-04-15T03:19:39.500Z,1.00
2018-04-15T03:22:07.774Z,0.80
2018-04-15T03:24:36.054Z,0.73
2018-04-15T03:27:04.335Z,0.80
2018-04-15T03:29:32.481Z,0.70
2018-04-15T03:32:00.774Z,1.17
2018-04-15T03:34:29.054Z,1.00
2018-04-15T03:36:57.334Z,0.90
2018-04-15T03:39:25.489Z,0.80
2018-04-15T03:41:53.894Z,1.00
2018-04-15T03:44:22.154Z,0.80
2018-04-15T03:46:50.435Z,0.63
2018-04-15T03:49:18.714Z,0.83
2018-04-15T03:51:46.994Z,1.20
2018-04-15T03:54:15.254Z,0.70
2018-04-15T03:56:43.534Z,0.70
2018-04-15T03:59:11.816Z,0.60
2018-04-15T04:01:39.983Z,0.70
2018-04-15T04:04:08.163Z,0.80
2018-04-15T04:06:36.434Z,1.10
2018-04-15T04:09:04.922Z,0.70
2018-04-15T04:11:33.194Z,1.10
2018-04-15T04:14:01.474Z,0.87
2018-04-15T04:16:29.763Z,0.70
2018-04-15T04:19:10.015Z,0.90
2018-04-15T04:21:50.482Z,0.70
2018-04-15T04:24:32.455Z,0.80
2018-04-15T04:27:00.743Z,0.90
2018-04-15T04:29:29.015Z,0.90
2018-04-15T04:31:57.184Z,0.90
2018-04-15T04:34:25.455Z,1.97
2018-04-15T04:36:53.734Z,0.83
2018-04-15T04:39:22.115Z,0.80
2018-04-15T04:41:50.395Z,0.90
2018-04-15T04:44:18.665Z,1.10
2018-04-15T04:46:46.914Z,0.90
2018-04-15T04:49:15.111Z,0.90
2018-04-15T04:51:43.181Z,0.80
2018-04-15T04:54:11.454Z,1.37
2018-04-15T04:56:39.624Z,0.80
2018-04-15T04:59:07.914Z,0.73
2018-04-15T05:01:36.194Z,1.27
2018-04-15T05:04:04.474Z,1.07
2018-04-15T05:06:32.734Z,1.23
2018-04-15T05:09:01.017Z,0.90
2018-04-15T05:11:29.295Z,0.80
2018-04-15T05:13:57.575Z,1.30
2018-04-15T05:16:25.854Z,0.97
2018-04-15T05:18:54.117Z,0.87
2018-04-15T05:21:22.395Z,0.90
2018-04-15T05:23:50.595Z,1.50
2018-04-15T05:26:18.954Z,5.27
2018-04-15T05:28:47.225Z,5.37
2018-04-15T05:31:15.712Z,4.03
2018-04-15T05:33:43.971Z,2.13
2018-04-15T05:36:12.155Z,2.13
2018-04-15T05:38:40.287Z,2.83
2018-04-15T05:41:08.616Z,5.13
2018-04-15T05:43:36.771Z,1.23
2018-04-15T05:46:05.042Z,2.20
2018-04-15T05:48:33.321Z,3.97
2018-04-15T05:51:01.510Z,2.37
2018-04-15T05:53:29.662Z,2.13
2018-04-15T05:55:58.456Z,4.53
2018-04-15T05:58:26.726Z,1.27
2018-04-15T06:00:55.016Z,2.53
2018-04-15T06:03:23.294Z,3.40
2018-04-15T06:05:51.386Z,3.43
2018-04-15T06:08:19.629Z,1.47
2018-04-15T06:10:47.731Z,4.57
2018-04-15T06:13:16.087Z,1.93
2018-04-15T06:15:44.355Z,3.40
2018-04-15T06:18:12.653Z,1.00
2018-04-15T06:20:40.923Z,4.03
2018-04-15T06:23:09.197Z,3.50
2018-04-15T06:25:37.285Z,1.33
2018-04-15T06:28:05.376Z,3.10
2018-04-15T06:30:33.477Z,4.13
2018-04-15T06:33:01.596Z,2.93
2018-04-15T06:35:29.737Z,4.07
2018-04-15T06:37:57.934Z,8.27
2018-04-15T06:40:26.087Z,3.10
2018-04-15T06:42:54.374Z,2.70
2018-04-15T06:45:22.542Z,2.13
2018-04-15T06:47:50.814Z,2.70
2018-04-15T06:50:19.202Z,2.50
2018-04-15T06:52:47.320Z,3.03
2018-04-15T06:55:15.550Z,3.13
2018-04-15T06:57:43.815Z,3.23
2018-04-15T07:00:12.068Z,3.07
2018-04-15T07:02:40.374Z,2.13
2018-04-15T07:05:08.656Z,2.03
2018-04-15T07:07:36.934Z,3.33
2018-04-15T07:10:05.193Z,1.47
2018-04-15T07:12:33.482Z,2.00
2018-04-15T07:15:01.757Z,1.67
2018-04-15T07:17:29.931Z,3.30
2018-04-15T07:19:58.194Z,2.03
2018-04-15T07:22:26.482Z,3.30
2018-04-15T07:24:54.754Z,1.47
2018-04-15T07:27:23.134Z,2.73
2018-04-15T07:29:51.414Z,2.23
2018-04-15T07:32:19.694Z,3.23
2018-04-15T07:34:47.954Z,2.00
2018-04-15T07:37:16.150Z,2.70
2018-04-15T07:39:44.422Z,2.63
2018-04-15T07:42:12.894Z,2.67
2018-04-15T07:44:41.054Z,1.47
2018-04-15T07:47:09.334Z,3.03
2018-04-15T07:49:37.406Z,5.03
2018-04-15T07:52:05.577Z,6.43
2018-04-15T07:54:33.855Z,6.83
2018-04-15T07:57:02.022Z,6.33
2018-04-15T07:59:30.331Z,4.23
2018-04-15T08:01:58.682Z,4.50
2018-04-15T08:04:26.950Z,5.37
2018-04-15T08:06:55.234Z,4.40
2018-04-15T08:09:23.531Z,7.93
2018-04-15T08:11:51.668Z,3.57
2018-04-15T08:14:19.955Z,6.53
2018-04-15T08:16:48.238Z,4.90
2018-04-15T08:19:16.614Z,3.80
2018-04-15T08:21:44.894Z,3.63
2018-04-15T08:24:13.175Z,7.40
2018-04-15T08:26:41.322Z,5.70
2018-04-15T08:29:09.615Z,2.97
2018-04-15T08:31:38.434Z,2.10
2018-04-15T08:34:06.794Z,4.50
2018-04-15T08:36:35.054Z,6.80
2018-04-15T08:39:03.434Z,5.93
2018-04-15T08:41:31.714Z,7.70
2018-04-15T08:43:59.998Z,6.13
2018-04-15T08:46:28.282Z,8.57
